Time;durP1;ratioP1;P1;durP2;ratioP2;P2;SDS_P1;SDS_P2;PMS_P1;PMS_P2;Temp;Humidity;BMP_temperature;BMP_pressure;BME280_temperature;BME280_humidity;BME280_pressure;Samples;Min_cycle;Max_cycle;Signal;HPM_P1;HPM_P2
2024/04/10 00:02:22;;;;;;;5.90;2.05;;;;;;;9.01;100.00;101475.25;5401796;26;20000;-74
2024/04/10 00:04:48;;;;;;;5.88;1.55;;;;;;;9.03;100.00;101480.34;5376556;26;20378;-74
2024/04/10 00:07:15;;;;;;;3.50;1.42;;;;;;;9.00;100.00;101491.50;5376741;26;19995;-73
2024/04/10 00:09:43;;;;;;;4.38;1.70;;;;;;;8.97;100.00;101484.00;5396694;26;20014;-73
2024/04/10 00:12:08;;;;;;;5.70;1.90;;;;;;;8.95;100.00;101478.09;5401108;26;20011;-74
2024/04/10 00:14:37;;;;;;;4.07;1.55;;;;;;;8.93;100.00;101480.97;5357098;26;22047;-74
2024/04/10 00:17:05;;;;;;;4.97;1.67;;;;;;;8.94;100.00;101487.13;5407698;26;20091;-73
2024/04/10 00:19:30;;;;;;;6.32;2.38;;;;;;;8.95;100.00;101488.78;5401836;26;20019;-73
2024/04/10 00:21:56;;;;;;;4.38;1.70;;;;;;;8.90;100.00;101481.47;5408751;26;20087;-73
2024/04/10 00:24:22;;;;;;;6.45;1.92;;;;;;;8.89;100.00;101495.88;5401481;26;20043;-73
2024/04/10 00:26:49;;;;;;;5.72;2.00;;;;;;;8.88;100.00;101496.94;5404323;26;20007;-74
2024/04/10 00:29:15;;;;;;;5.63;1.50;;;;;;;8.87;100.00;101494.47;5437180;26;20007;-74
2024/04/10 00:31:42;;;;;;;5.70;2.03;;;;;;;8.87;100.00;101505.97;5400070;26;20011;-74
2024/04/10 00:34:08;;;;;;;6.85;2.20;;;;;;;8.83;100.00;101499.50;5346973;26;20553;-74
2024/04/10 00:36:33;;;;;;;;;;;;;;;8.83;100.00;101496.03;5378639;26;20043;-75
2024/04/10 00:39:00;;;;;;;3.03;1.50;;;;;;;8.80;100.00;101515.19;5408133;26;20015;-75
2024/04/10 00:41:26;;;;;;;4.88;2.10;;;;;;;8.79;100.00;101509.03;5404916;26;20007;-76
2024/04/10 00:43:52;;;;;;;5.35;1.73;;;;;;;8.77;100.00;101507.66;5425993;26;20438;-76
2024/04/10 00:46:23;;;;;;;8.73;2.45;;;;;;;8.77;100.00;101516.47;5404367;26;20019;-74
2024/04/10 00:48:49;;;;;;;6.07;1.98;;;;;;;8.79;100.00;101518.91;5367623;26;20550;-72
2024/04/10 00:51:25;;;;;;;4.85;2.30;;;;;;;8.79;100.00;101524.25;5363497;26;20012;-73
2024/04/10 00:53:54;;;;;;;7.72;2.30;;;;;;;8.78;100.00;101528.78;5338033;26;20467;-73
2024/04/10 00:56:21;;;;;;;4.57;2.17;;;;;;;8.80;100.00;101533.88;5403270;26;20006;-73
2024/04/10 00:58:47;;;;;;;6.65;1.92;;;;;;;8.79;100.00;101543.75;5398581;26;20445;-72
2024/04/10 01:01:14;;;;;;;5.57;2.28;;;;;;;8.81;100.00;101552.34;5372631;26;20090;-73
2024/04/10 01:03:41;;;;;;;5.32;2.20;;;;;;;8.80;100.00;101555.25;5404847;26;20019;-71
2024/04/10 01:06:08;;;;;;;6.10;2.00;;;;;;;8.77;100.00;101556.53;5371764;26;20084;-73
2024/04/10 01:08:36;;;;;;;6.57;2.95;;;;;;;8.78;100.00;101550.16;5399239;26;20003;-75
2024/04/10 01:11:05;;;;;;;6.13;2.03;;;;;;;8.75;100.00;101543.44;5431235;26;20016;-71
2024/04/10 01:13:34;;;;;;;6.88;2.55;;;;;;;8.75;100.00;101543.44;5436589;26;20011;-75
2024/04/10 01:16:00;;;;;;;6.13;2.03;;;;;;;8.75;100.00;101545.28;5401551;26;20471;-72
2024/04/10 01:18:26;;;;;;;5.20;2.10;;;;;;;8.77;100.00;101542.38;5393787;26;20022;-74
2024/04/10 01:20:53;;;;;;;5.32;2.10;;;;;;;8.75;100.00;101550.63;5375871;26;20526;-74
2024/04/10 01:23:21;;;;;;;6.30;2.58;;;;;;;8.79;100.00;101553.63;5430907;26;20007;-74
2024/04/10 01:25:47;;;;;;;5.43;2.20;;;;;;;8.81;100.00;101557.69;5435951;26;20003;-74
2024/04/10 01:28:13;;;;;;;7.05;2.60;;;;;;;8.82;100.00;101562.00;5424110;26;20033;-73
2024/04/10 01:30:39;;;;;;;6.20;2.17;;;;;;;8.84;100.00;101567.91;5365824;26;21736;-72
2024/04/10 01:33:06;;;;;;;6.57;2.17;;;;;;;8.88;100.00;101585.09;5377708;26;20007;-73
2024/04/10 01:35:32;;;;;;;9.77;2.65;;;;;;;8.90;100.00;101577.63;5400149;26;20003;-72
2024/04/10 01:37:58;;;;;;;;;;;;;;;8.93;100.00;101579.00;5348454;26;20011;-73
2024/04/10 01:40:23;;;;;;;9.70;2.60;;;;;;;8.93;100.00;101577.13;5402303;26;19935;-74
2024/04/10 01:42:49;;;;;;;5.18;2.20;;;;;;;8.94;100.00;101573.44;5397347;26;20468;-73
2024/04/10 01:45:16;;;;;;;13.70;2.80;;;;;;;8.95;100.00;101576.94;5401232;26;20087;-74
2024/04/10 01:49:34;;;;;;;4.55;2.50;;;;;;;8.92;100.00;101570.19;5512599;25;20314;-77
2024/04/10 01:52:00;;;;;;;8.63;2.60;;;;;;;8.93;100.00;101581.69;5453992;26;20018;-75
2024/04/10 01:54:26;;;;;;;8.43;2.30;;;;;;;8.95;100.00;101577.75;5450269;25;20033;-75
2024/04/10 01:56:51;;;;;;;5.20;1.75;;;;;;;8.94;100.00;101573.44;5483745;25;20046;-74
2024/04/10 01:59:19;;;;;;;6.47;2.25;;;;;;;8.95;100.00;101583.06;5473040;25;20047;-75
2024/04/10 02:01:44;;;;;;;5.15;2.20;;;;;;;8.98;100.00;101579.91;5478732;25;20002;-75
2024/04/10 02:04:10;;;;;;;4.75;2.30;;;;;;;8.98;100.00;101589.78;5448610;26;20010;-74
2024/04/10 02:06:36;;;;;;;7.85;2.50;;;;;;;8.97;100.00;101593.53;5471039;26;20003;-74
2024/04/10 02:09:01;;;;;;;5.22;2.17;;;;;;;8.97;100.00;101597.00;5473769;25;20078;-74
2024/04/10 02:11:28;;;;;;;7.78;2.25;;;;;;;8.98;100.00;101611.16;5516735;25;20013;-75
2024/04/10 02:13:55;;;;;;;5.00;2.00;;;;;;;8.97;100.00;101613.03;5451309;26;20009;-75
2024/04/10 02:16:24;;;;;;;8.95;2.15;;;;;;;8.98;100.00;101606.63;5445376;26;20822;-75
2024/04/10 02:18:50;;;;;;;7.47;2.20;;;;;;;8.97;100.00;101601.53;5448854;26;20018;-75
2024/04/10 02:21:17;;;;;;;6.65;2.38;;;;;;;8.96;100.00;101606.06;5427775;26;20006;-76
2024/04/10 02:23:43;;;;;;;6.80;2.33;;;;;;;8.94;100.00;101608.19;5432183;25;20009;-76
2024/04/10 02:26:12;;;;;;;;;;;;;;;8.97;100.00;101613.03;5473548;25;20021;-74
2024/04/10 02:28:37;;;;;;;6.53;2.05;;;;;;;8.98;100.00;101628.00;5459858;26;19927;-74
2024/04/10 02:31:04;;;;;;;6.40;2.10;;;;;;;9.01;100.00;101621.41;5435568;26;20020;-75
2024/04/10 02:33:34;;;;;;;6.90;2.10;;;;;;;9.00;100.00;101625.91;5476750;26;20037;-76
2024/04/10 02:36:00;;;;;;;6.70;2.10;;;;;;;9.02;100.00;101626.50;5483789;25;20014;-75
2024/04/10 02:38:28;;;;;;;7.35;2.60;;;;;;;9.02;100.00;101639.84;5486523;25;20007;-76
2024/04/10 02:40:54;;;;;;;7.18;2.30;;;;;;;9.00;100.00;101647.28;5481495;25;20018;-75
2024/04/10 02:43:20;;;;;;;6.82;2.53;;;;;;;9.03;100.00;101659.38;5458027;26;20015;-74
2024/04/10 02:45:56;;;;;;;5.10;2.33;;;;;;;9.03;100.00;101676.22;5483079;25;20020;-75
2024/04/10 02:48:22;;;;;;;5.20;2.10;;;;;;;9.02;100.00;101695.16;5457888;26;20379;-75
2024/04/10 02:50:48;;;;;;;6.68;2.30;;;;;;;9.01;100.00;101704.22;5444765;26;20006;-76
2024/04/10 02:53:14;;;;;;;6.00;2.10;;;;;;;9.00;100.00;101715.94;5479675;26;20007;-77
2024/04/10 02:55:44;;;;;;;;;;;;;;;8.96;100.00;101707.59;5484147;25;20014;-76
2024/04/10 02:58:10;;;;;;;4.30;1.38;;;;;;;8.89;100.00;101720.25;5480102;25;20373;-76
2024/04/10 03:00:48;;;;;;;5.38;1.40;;;;;;;8.86;100.00;101715.38;5473175;25;20477;-74
2024/04/10 03:03:14;;;;;;;4.18;1.20;;;;;;;8.82;100.00;101718.78;5438485;26;20006;-75
2024/04/10 03:05:41;;;;;;;6.03;1.17;;;;;;;8.81;100.00;101723.31;5471338;26;20018;-74
2024/04/10 03:08:10;;;;;;;2.58;0.77;;;;;;;8.79;100.00;101719.22;5466135;26;20006;-77
2024/04/10 03:10:36;;;;;;;6.25;1.50;;;;;;;8.77;100.00;101732.81;5477708;26;20037;-75
2024/04/10 03:13:02;;;;;;;;;;;;;;;8.71;100.00;101745.22;5447551;26;20014;-74
2024/04/10 03:15:28;;;;;;;3.25;0.60;;;;;;;8.68;100.00;101744.91;5429456;26;20053;-75
2024/04/10 03:17:57;;;;;;;6.38;1.35;;;;;;;8.65;100.00;101748.84;5465579;25;20010;-75
2024/04/10 03:20:26;;;;;;;2.50;0.95;;;;;;;8.65;100.00;101748.03;5277767;21;20004;-79
2024/04/10 03:22:52;;;;;;;3.67;0.93;;;;;;;8.64;100.00;101743.72;5263997;26;20069;-81
2024/04/10 03:25:18;;;;;;;6.55;1.05;;;;;;;8.65;100.00;101746.16;5344203;26;20013;-77
2024/04/10 03:27:43;;;;;;;6.63;0.93;;;;;;;8.67;100.00;101759.28;5267580;26;20002;-76
2024/04/10 03:30:10;;;;;;;4.75;0.98;;;;;;;8.66;100.00;101769.16;5292236;26;20025;-76
2024/04/10 03:32:39;;;;;;;4.45;1.20;;;;;;;8.66;100.00;101779.00;5290643;26;20386;-78
2024/04/10 03:35:05;;;;;;;3.38;1.27;;;;;;;8.67;100.00;101769.97;5289203;26;20005;-79
2024/04/10 03:37:31;;;;;;;5.47;1.10;;;;;;;8.71;100.00;101765.78;5254583;26;20021;-79
2024/04/10 03:39:57;;;;;;;5.47;0.98;;;;;;;8.72;100.00;101780.75;5207324;27;20706;-79
2024/04/10 03:42:25;;;;;;;5.22;0.68;;;;;;;8.70;100.00;101785.53;5231974;27;20006;-79
2024/04/10 03:44:50;;;;;;;4.95;1.20;;;;;;;8.71;100.00;101789.81;5258810;26;20017;-78
2024/04/10 03:47:16;;;;;;;8.00;1.00;;;;;;;8.71;100.00;101787.97;5287309;26;20007;-77
2024/04/10 03:49:42;;;;;;;2.63;1.00;;;;;;;8.71;100.00;101785.28;5212655;26;20367;-79
2024/04/10 03:52:08;;;;;;;4.65;0.90;;;;;;;8.71;100.00;101781.81;5258160;26;20033;-77
2024/04/10 03:54:36;;;;;;;4.18;1.00;;;;;;;8.67;100.00;101783.31;5245594;26;20011;-79
2024/04/10 03:57:01;;;;;;;4.30;0.85;;;;;;;8.66;100.00;101787.03;5330324;26;20018;-80
2024/04/10 03:59:27;;;;;;;4.72;1.13;;;;;;;8.64;100.00;101797.13;5258708;26;20064;-80
2024/04/10 04:01:55;;;;;;;2.95;0.77;;;;;;;8.62;100.00;101793.88;5270588;26;20005;-77
2024/04/10 04:04:21;;;;;;;4.28;0.90;;;;;;;8.60;100.00;101791.47;5177120;27;20029;-78
2024/04/10 04:06:46;;;;;;;5.70;1.30;;;;;;;8.59;100.00;101794.34;5248172;26;20517;-79
2024/04/10 04:09:12;;;;;;;1.77;0.68;;;;;;;8.58;100.00;101806.06;5274968;26;20007;-78
2024/04/10 04:11:38;;;;;;;4.68;1.00;;;;;;;8.60;100.00;101811.97;5348722;26;20064;-77
2024/04/10 04:14:03;;;;;;;4.55;0.88;;;;;;;8.60;100.00;101814.66;5231246;27;20007;-79
2024/04/10 04:16:32;;;;;;;4.05;1.00;;;;;;;8.62;100.00;101816.06;5306335;26;20010;-79
2024/04/10 04:18:58;;;;;;;5.20;1.00;;;;;;;8.64;100.00;101819.31;5233532;27;20486;-79
2024/04/10 04:21:24;;;;;;;4.32;1.23;;;;;;;8.66;100.00;101827.91;5261973;26;20009;-79
2024/04/10 04:23:50;;;;;;;3.08;0.90;;;;;;;8.67;100.00;101820.69;5268339;26;20954;-79
2024/04/10 04:26:16;;;;;;;5.20;0.73;;;;;;;8.70;100.00;101836.28;5232084;27;20483;-78
2024/04/10 04:28:42;;;;;;;2.83;0.88;;;;;;;8.70;100.00;101845.09;5329188;26;20018;-78
2024/04/10 04:31:07;;;;;;;3.85;0.75;;;;;;;8.73;100.00;101854.50;5261882;26;20042;-79
2024/04/10 04:33:36;;;;;;;3.63;1.15;;;;;;;8.74;100.00;101853.47;5253530;26;20025;-79
2024/04/10 04:36:02;;;;;;;5.63;0.70;;;;;;;8.75;100.00;101860.44;5263702;26;20022;-80
2024/04/10 04:38:31;;;;;;;4.28;1.48;;;;;;;8.74;100.00;101853.47;5267422;26;21345;-79
2024/04/10 04:40:57;;;;;;;3.92;0.90;;;;;;;8.75;100.00;101863.94;5242036;26;20007;-80
2024/04/10 04:43:25;;;;;;;5.05;0.70;;;;;;;8.77;100.00;101863.69;5271352;26;20865;-79
2024/04/10 04:45:50;;;;;;;2.97;1.20;;;;;;;8.77;100.00;101882.38;5262489;26;20007;-80
2024/04/10 04:48:16;;;;;;;3.72;0.95;;;;;;;8.80;100.00;101905.13;5242672;27;20076;-80
2024/04/10 04:50:42;;;;;;;4.00;1.15;;;;;;;8.74;100.00;101904.22;5259208;26;20005;-79
2024/04/10 04:53:09;;;;;;;;;;;;;;;8.71;100.00;101905.47;5263582;26;20086;-79
2024/04/10 04:55:36;;;;;;;5.63;1.25;;;;;;;8.70;100.00;101935.09;5262184;26;19958;-77
2024/04/10 04:58:04;;;;;;;3.75;0.88;;;;;;;8.64;100.00;101942.16;5313800;26;20471;-79
2024/04/10 05:00:30;;;;;;;4.05;1.00;;;;;;;8.64;100.00;101960.03;5355638;26;20611;-78
2024/04/10 05:02:59;;;;;;;4.35;0.95;;;;;;;8.60;100.00;101962.34;5294095;26;20014;-79
2024/04/10 05:05:25;;;;;;;5.63;1.10;;;;;;;8.58;100.00;101971.63;5247109;26;20011;-79
2024/04/10 05:07:51;;;;;;;4.60;1.20;;;;;;;8.55;100.00;101978.22;5281076;26;20464;-80
2024/04/10 05:10:19;;;;;;;4.20;1.50;;;;;;;8.53;100.00;102003.50;5262206;26;20087;-80
2024/04/10 05:12:45;;;;;;;5.65;1.25;;;;;;;8.48;100.00;102002.34;5257716;26;20033;-80
2024/04/10 05:15:13;;;;;;;3.55;1.10;;;;;;;8.47;100.00;102011.41;5229407;27;20006;-79
2024/04/10 05:17:39;;;;;;;4.65;1.38;;;;;;;8.45;100.00;102013.47;5344083;26;20486;-78
2024/04/10 05:20:08;;;;;;;5.57;1.10;;;;;;;8.44;100.00;102029.69;5287086;26;20006;-79
2024/04/10 05:22:34;;;;;;;2.80;1.10;;;;;;;8.43;100.00;102036.09;5258333;26;20014;-78
2024/04/10 05:25:00;;;;;;;4.30;1.42;;;;;;;8.40;100.00;102037.38;5262286;26;20011;-79
2024/04/10 05:27:27;;;;;;;6.03;1.48;;;;;;;8.40;100.00;102049.88;5354749;26;20006;-79
2024/04/10 05:29:59;;;;;;;4.20;1.25;;;;;;;8.41;100.00;102056.88;5265579;26;20007;-78
2024/04/10 05:32:26;;;;;;;3.50;1.00;;;;;;;8.39;100.00;102054.38;5286588;26;20076;-79
2024/04/10 05:34:53;;;;;;;5.38;1.20;;;;;;;8.35;100.00;102066.56;5245348;26;20014;-81
2024/04/10 05:37:19;;;;;;;5.32;1.60;;;;;;;8.35;100.00;102082.59;5342950;26;20007;-77
2024/04/10 05:39:48;;;;;;;5.43;1.75;;;;;;;8.30;100.00;102074.38;5274112;26;20111;-79
2024/04/10 05:42:14;;;;;;;4.90;1.10;;;;;;;8.28;100.00;102089.00;5260205;26;20840;-79
2024/04/10 05:44:39;;;;;;;4.00;1.15;;;;;;;8.27;100.00;102101.53;5304130;26;20010;-79
2024/04/10 05:47:06;;;;;;;4.40;1.00;;;;;;;8.28;100.00;102097.00;5257710;26;20466;-79
2024/04/10 05:49:34;;;;;;;8.95;1.45;;;;;;;8.25;100.00;102098.25;5254704;26;20003;-80
2024/04/10 05:52:00;;;;;;;6.00;1.27;;;;;;;8.22;100.00;102093.38;5314772;26;20018;-79
2024/04/10 05:54:29;;;;;;;5.78;1.17;;;;;;;8.24;100.00;102103.81;5262229;26;20820;-80
2024/04/10 05:56:54;;;;;;;7.13;1.42;;;;;;;8.24;100.00;102098.47;5348695;26;20482;-79
2024/04/10 05:59:21;;;;;;;3.22;1.10;;;;;;;8.28;100.00;102121.03;5263001;26;20007;-79
2024/04/10 06:01:47;;;;;;;4.15;1.10;;;;;;;8.29;100.00;102131.47;5270713;26;20018;-80
2024/04/10 06:04:14;;;;;;;5.20;1.00;;;;;;;8.31;100.00;102121.41;5287515;26;20017;-80
2024/04/10 06:06:39;;;;;;;6.78;1.27;;;;;;;8.35;100.00;102130.63;5239883;26;20022;-80
2024/04/10 06:09:05;;;;;;;3.92;0.85;;;;;;;8.36;100.00;102145.59;5223337;27;20764;-81
2024/04/10 06:11:32;;;;;;;6.45;1.65;;;;;;;8.37;100.00;102138.41;5234004;27;20100;-82
2024/04/10 06:13:57;;;;;;;5.28;1.23;;;;;;;8.41;100.00;102150.28;5275397;26;20015;-79
2024/04/10 06:16:24;;;;;;;5.15;0.93;;;;;;;8.45;100.00;102156.81;5269258;26;20103;-79
2024/04/10 06:18:50;;;;;;;6.15;1.17;;;;;;;8.52;100.00;102156.75;5259374;26;20015;-82
2024/04/10 06:21:16;;;;;;;4.82;1.08;;;;;;;8.56;100.00;102163.28;5347973;26;20006;-81
2024/04/10 06:23:42;;;;;;;5.60;0.88;;;;;;;8.63;100.00;102158.69;5258989;26;20007;-80
2024/04/10 06:26:09;;;;;;;7.30;0.90;;;;;;;8.67;100.00;102151.84;5273306;26;20021;-79
2024/04/10 06:28:36;;;;;;;5.75;1.10;;;;;;;8.72;100.00;102152.00;5343345;26;20464;-80
2024/04/10 06:31:04;;;;;;;11.90;0.90;;;;;;;8.79;100.00;102160.75;5303750;26;20594;-79
2024/04/10 06:33:31;;;;;;;5.47;1.00;;;;;;;8.88;100.00;102167.47;5317293;26;20473;-80
2024/04/10 06:36:04;;;;;;;5.75;1.02;;;;;;;8.95;100.00;102172.72;5295650;26;20024;-79
2024/04/10 06:38:30;;;;;;;5.80;0.88;;;;;;;9.00;100.00;102181.69;5272359;26;20006;-81
2024/04/10 06:40:58;;;;;;;4.30;1.17;;;;;;;9.03;100.00;102175.91;5354667;26;20010;-80
2024/04/10 06:43:26;;;;;;;6.40;0.90;;;;;;;9.07;100.00;102176.25;5262834;26;20015;-80
2024/04/10 06:46:00;;;;;;;4.68;1.10;;;;;;;9.13;100.00;102179.88;5268032;26;20011;-78
2024/04/10 06:48:26;;;;;;;6.75;1.10;;;;;;;9.19;100.00;102179.81;5268618;26;20010;-80
2024/04/10 06:50:56;;;;;;;7.53;1.40;;;;;;;9.25;100.00;102186.13;5263848;26;20530;-80
2024/04/10 06:53:23;;;;;;;8.82;0.95;;;;;;;9.26;100.00;102199.25;5307822;26;20007;-80
2024/04/10 06:55:56;;;;;;;7.30;1.35;;;;;;;9.28;100.00;102204.41;5289987;26;20035;-79
2024/04/10 06:58:22;;;;;;;6.35;1.25;;;;;;;9.30;100.00;102210.31;5260871;26;20011;-79
2024/04/10 07:00:59;;;;;;;7.65;1.90;;;;;;;9.33;100.00;102204.50;5286477;26;20007;-80
2024/04/10 07:03:28;;;;;;;6.00;1.10;;;;;;;9.27;100.00;102208.91;5347632;26;20039;-79
2024/04/10 07:06:14;;;;;;;7.72;1.30;;;;;;;9.27;100.00;102224.13;5286639;26;20033;-79
2024/04/10 07:08:42;;;;;;;5.97;0.93;;;;;;;9.28;100.00;102228.47;5294622;26;20006;-80
2024/04/10 07:11:14;;;;;;;4.95;1.50;;;;;;;9.33;100.00;102236.59;5264327;26;20524;-79
2024/04/10 07:13:43;;;;;;;6.93;1.10;;;;;;;9.48;100.00;102246.91;5330404;26;20023;-79
2024/04/10 07:16:09;;;;;;;6.25;1.10;;;;;;;9.60;100.00;102245.09;5360342;26;20014;-80
2024/04/10 07:18:35;;;;;;;5.07;1.13;;;;;;;9.67;100.00;102253.03;5253798;26;20089;-80
2024/04/10 07:21:06;;;;;;;11.43;1.33;;;;;;;9.80;100.00;102261.69;5244072;27;20042;-80
2024/04/10 07:23:33;;;;;;;7.50;1.38;;;;;;;9.86;100.00;102265.31;5250618;26;20021;-79
2024/04/10 07:26:15;;;;;;;6.57;1.60;;;;;;;9.89;100.00;102275.59;5271247;26;20064;-79
2024/04/10 07:28:44;;;;;;;4.53;1.13;;;;;;;9.93;100.00;102266.03;5249345;26;20007;-78
2024/04/10 07:31:11;;;;;;;5.60;1.05;;;;;;;10.07;100.00;102272.84;5272213;26;20020;-80
2024/04/10 07:33:38;;;;;;;7.65;1.10;;;;;;;10.20;100.00;102277.19;5323266;26;20080;-78
2024/04/10 07:36:11;;;;;;;7.85;1.13;;;;;;;10.26;100.00;102281.66;5236609;26;20010;-79
2024/04/10 07:38:38;;;;;;;5.50;1.13;;;;;;;10.36;100.00;102275.72;5293057;26;20468;-79
2024/04/10 07:41:04;;;;;;;10.10;1.70;;;;;;;10.38;100.00;102289.72;5294779;26;21159;-79
2024/04/10 07:43:32;;;;;;;6.35;1.00;;;;;;;10.45;100.00;102284.25;5269376;26;20493;-77
2024/04/10 07:46:05;;;;;;;9.25;1.40;;;;;;;10.51;100.00;102288.69;5263508;26;20013;-79
2024/04/10 07:48:31;;;;;;;5.90;1.20;;;;;;;10.50;100.00;102292.38;5242814;26;20010;-80
2024/04/10 07:50:56;;;;;;;7.30;1.20;;;;;;;10.54;100.00;102309.63;5261219;26;20077;-81
2024/04/10 07:53:22;;;;;;;5.40;1.00;;;;;;;10.49;100.00;102320.22;5350263;26;20352;-79
2024/04/10 07:55:47;;;;;;;8.18;1.75;;;;;;;10.45;100.00;102313.72;5265033;26;20007;-78
2024/04/10 07:58:13;;;;;;;5.38;1.10;;;;;;;10.52;100.00;102327.81;5261486;26;20007;-80
2024/04/10 08:00:39;;;;;;;8.80;1.63;;;;;;;10.59;100.00;102333.88;5262566;26;20025;-79
2024/04/10 08:03:04;;;;;;;6.85;1.30;;;;;;;10.68;100.00;102326.31;5317925;26;20860;-78
2024/04/10 08:05:31;;;;;;;7.22;1.27;;;;;;;10.65;100.00;102330.28;5287685;26;20019;-77
2024/04/10 08:07:58;;;;;;;7.90;1.27;;;;;;;10.60;100.00;102330.97;5290180;26;20009;-79
2024/04/10 08:10:24;;;;;;;8.75;1.52;;;;;;;10.51;100.00;102336.91;5267335;26;20042;-79
2024/04/10 08:12:49;;;;;;;6.32;1.55;;;;;;;10.51;100.00;102343.06;5255567;26;20060;-74
2024/04/10 08:15:15;;;;;;;7.43;1.33;;;;;;;10.46;100.00;102355.50;5253038;26;20011;-79
2024/04/10 08:17:42;;;;;;;6.40;1.20;;;;;;;10.46;100.00;102363.56;5289675;26;20014;-79
2024/04/10 08:20:07;;;;;;;9.45;1.50;;;;;;;10.48;100.00;102372.16;5265820;26;20112;-79
2024/04/10 08:22:33;;;;;;;8.35;1.38;;;;;;;10.44;100.00;102369.16;5247278;27;20018;-79
2024/04/10 08:24:59;;;;;;;7.05;1.42;;;;;;;10.44;100.00;102369.16;5266004;26;20014;-79
2024/04/10 08:27:25;;;;;;;6.70;1.35;;;;;;;10.36;100.00;102378.31;5229914;27;20761;-79
2024/04/10 08:29:50;;;;;;;9.52;1.50;;;;;;;10.41;100.00;102385.66;5293977;26;20145;-78
2024/04/10 08:32:16;;;;;;;6.85;1.45;;;;;;;10.47;100.00;102384.75;5255160;26;20026;-77
2024/04/10 08:34:41;;;;;;;7.28;1.10;;;;;;;10.71;100.00;102390.19;5236263;27;20010;-79
2024/04/10 08:37:07;;;;;;;6.80;1.40;;;;;;;10.99;100.00;102403.72;5256878;26;20007;-78
2024/04/10 08:39:32;;;;;;;7.45;1.25;;;;;;;11.16;100.00;102401.97;5239635;27;20007;-77
2024/04/10 08:41:59;;;;;;;5.50;1.30;;;;;;;11.14;100.00;102401.41;5255562;26;20010;-79
2024/04/10 08:44:26;;;;;;;7.10;1.15;;;;;;;11.26;100.00;102414.81;5271401;26;20137;-79
2024/04/10 08:46:55;;;;;;;6.35;1.13;;;;;;;11.42;100.00;102410.59;5260437;26;20017;-79
2024/04/10 08:49:23;;;;;;;6.38;1.25;;;;;;;11.48;100.00;102407.81;5356139;26;20003;-80
2024/04/10 08:51:51;;;;;;;8.30;1.25;;;;;;;11.52;100.00;102415.41;5343124;26;20007;-83
2024/04/10 08:54:20;;;;;;;7.25;1.30;;;;;;;11.53;100.00;102412.47;5338476;26;20010;-76
2024/04/10 08:56:46;;;;;;;9.00;1.50;;;;;;;11.56;100.00;102424.59;5280371;26;20005;-79
2024/04/10 08:59:12;;;;;;;9.75;1.40;;;;;;;11.66;100.00;102414.91;5210208;26;20021;-80
2024/04/10 09:01:37;;;;;;;6.60;1.27;;;;;;;11.77;100.00;102422.09;5290894;26;20518;-77
2024/04/10 09:04:11;;;;;;;5.72;1.70;;;;;;;11.86;100.00;102429.84;5349208;26;20470;-77
2024/04/10 09:06:37;;;;;;;8.40;1.42;;;;;;;11.88;100.00;102433.09;5289351;26;20362;-78
2024/04/10 09:09:07;;;;;;;8.68;1.50;;;;;;;12.03;100.00;102438.78;5243318;27;20016;-78
2024/04/10 09:11:33;;;;;;;7.68;1.42;;;;;;;12.13;100.00;102430.13;5288145;26;20006;-80
2024/04/10 09:13:59;;;;;;;;;;;;;;;12.17;100.00;102442.81;5288049;26;20010;-79
2024/04/10 09:16:25;;;;;;;8.40;1.50;;;;;;;12.10;100.00;102447.50;5294006;26;19927;-79
2024/04/10 09:30:18;;;;;;;7.30;1.67;;;;;;;11.97;100.00;102474.63;5263199;27;20085;-79
2024/04/10 09:32:44;;;;;;;6.97;1.45;;;;;;;11.98;100.00;102487.00;5303821;26;20006;-81
2024/04/10 09:35:11;;;;;;;7.47;1.83;;;;;;;11.86;100.00;102484.34;5240061;26;20053;-82
2024/04/10 09:37:37;;;;;;;6.85;1.30;;;;;;;11.91;100.00;102486.31;5237132;27;20017;-80
2024/04/10 09:40:07;;;;;;;11.07;1.50;;;;;;;12.02;100.00;102490.84;5209187;26;20013;-85
2024/04/10 09:42:41;;;;;;;5.93;1.20;;;;;;;11.98;100.00;102492.38;5264913;26;20007;-86
2024/04/10 09:45:15;;;;;;;6.28;1.48;;;;;;;12.02;100.00;102506.97;5218307;26;20084;-89
2024/04/10 09:47:43;;;;;;;6.15;1.60;;;;;;;12.02;100.00;102505.09;5238222;27;20083;-88
2024/04/10 09:50:16;;;;;;;10.57;1.50;;;;;;;12.10;100.00;102492.34;5254832;26;20025;-85
2024/04/10 09:52:46;;;;;;;6.18;1.00;;;;;;;12.14;100.00;102510.44;5256632;26;20008;-85
2024/04/10 09:55:16;;;;;;;6.72;1.48;;;;;;;12.25;100.00;102508.78;5236442;26;20477;-85
2024/04/10 09:57:44;;;;;;;5.53;1.38;;;;;;;12.26;100.00;102499.66;5242633;27;20041;-85
2024/04/10 10:00:11;;;;;;;7.70;1.48;;;;;;;12.44;100.00;102509.44;5230523;26;20021;-84
2024/04/10 10:02:38;;;;;;;4.85;1.00;;;;;;;12.44;100.00;102520.19;5238162;27;20010;-85
2024/04/10 10:05:05;;;;;;;5.22;1.20;;;;;;;12.39;100.00;102520.88;5209712;26;20022;-85
2024/04/10 10:07:32;;;;;;;8.00;1.25;;;;;;;12.14;100.00;102529.25;5208802;27;20002;-84
2024/04/10 10:10:07;;;;;;;6.10;1.17;;;;;;;12.12;100.00;102525.16;5309551;26;20007;-84
2024/04/10 10:12:34;;;;;;;4.97;1.05;;;;;;;12.23;100.00;102517.06;5302090;26;20001;-84
2024/04/10 10:15:10;;;;;;;7.43;1.20;;;;;;;12.41;100.00;102523.34;5247431;26;20021;-85
2024/04/10 10:17:37;;;;;;;5.18;1.15;;;;;;;12.66;100.00;102521.13;5222683;27;20050;-83
2024/04/10 10:20:03;;;;;;;7.72;1.67;;;;;;;12.76;100.00;102520.53;5223284;26;20021;-85
2024/04/10 10:22:29;;;;;;;5.95;1.30;;;;;;;12.87;100.00;102521.50;5240451;27;20006;-85
2024/04/10 10:24:59;;;;;;;5.10;1.20;;;;;;;12.83;100.00;102526.56;5237923;27;20099;-86
2024/04/10 10:27:25;;;;;;;8.23;1.70;;;;;;;12.97;100.00;102532.47;5252062;27;20042;-85
2024/04/10 10:30:07;;;;;;;4.95;1.20;;;;;;;13.17;100.00;102532.00;5263384;26;20017;-85
2024/04/10 10:32:32;;;;;;;8.02;1.63;;;;;;;13.34;100.00;102540.91;5207051;27;20389;-85
2024/04/10 10:35:06;;;;;;;;;;;;;;;13.45;100.00;102539.22;5328272;26;20463;-83
2024/04/10 10:37:32;;;;;;;6.57;1.70;;;;;;;13.52;100.00;102534.50;5244111;27;19927;-85
2024/04/10 10:39:57;;;;;;;8.40;1.77;;;;;;;13.64;100.00;102537.91;5241418;26;20534;-84
2024/04/10 10:42:23;;;;;;;;;;;;;;;13.89;100.00;102557.16;5300518;26;20010;-83
2024/04/10 10:44:50;;;;;;;5.60;1.23;;;;;;;13.85;100.00;102545.22;5255612;26;19995;-82
2024/04/10 10:47:16;;;;;;;5.13;1.13;;;;;;;13.92;100.00;102555.81;5252956;26;20026;-83
2024/04/10 10:49:42;;;;;;;10.32;1.40;;;;;;;13.99;100.00;102550.25;5233812;27;20025;-82
2024/04/10 10:52:09;;;;;;;8.80;1.45;;;;;;;14.15;100.00;102544.81;5290150;26;20017;-82
2024/04/10 10:54:35;;;;;;;8.40;1.50;;;;;;;14.25;100.00;102554.13;5241998;27;20042;-81
2024/04/10 10:57:04;;;;;;;;;;;;;;;14.22;100.00;102560.78;5273475;26;20006;-81
2024/04/10 10:59:30;;;;;;;8.27;1.17;;;;;;;14.07;100.00;102568.69;5262106;26;19927;-82
2024/04/10 11:01:55;;;;;;;7.05;1.35;;;;;;;13.93;100.00;102571.72;5230927;27;20010;-82
2024/04/10 11:04:21;;;;;;;;;;;;;;;13.87;100.00;102570.03;5258620;26;20521;-83
2024/04/10 11:06:47;;;;;;;11.32;1.75;;;;;;;13.86;100.00;102565.69;5288488;26;19928;-81
2024/04/10 11:09:15;;;;;;;;;;;;;;;13.84;100.00;102575.09;5262690;26;20013;-83
2024/04/10 11:11:42;;;;;;;5.10;1.33;;;;;;;13.71;100.00;102570.88;5297360;26;19934;-84
2024/04/10 11:14:13;;;;;;;8.95;1.85;;;;;;;13.62;100.00;102566.97;5258216;26;20338;-82
2024/04/10 11:16:40;;;;;;;4.93;1.35;;;;;;;13.64;100.00;102564.84;5268501;26;20017;-83
2024/04/10 11:19:07;;;;;;;7.93;1.95;;;;;;;13.71;100.00;102560.09;5230113;26;20006;-82
2024/04/10 11:21:36;;;;;;;6.32;1.30;;;;;;;13.71;100.00;102572.75;5235986;27;20006;-84
2024/04/10 11:24:02;;;;;;;3.38;1.38;;;;;;;13.96;100.00;102575.00;5312950;26;20088;-84
2024/04/10 11:26:28;;;;;;;4.13;1.15;;;;;;;14.03;100.00;102573.78;5196705;27;20011;-84
2024/04/10 11:28:55;;;;;;;5.85;1.52;;;;;;;13.88;100.00;102570.84;5245744;27;20759;-82
2024/04/10 11:31:21;;;;;;;5.68;1.20;;;;;;;13.70;100.00;102576.50;5257506;26;20029;-80
2024/04/10 11:33:46;;;;;;;;;;;;;;;13.52;100.00;102578.38;5263119;26;20856;-81
2024/04/10 11:36:12;;;;;;;6.57;1.60;;;;;;;13.46;100.00;102573.16;5255694;26;20372;-84
2024/04/10 11:38:38;;;;;;;;;;;;;;;13.36;100.00;102582.69;5262451;26;20410;-83